sensor_id;sensor_type;location;lat;lon;timestamp;P1;durP1;ratioP1;P2;durP2;ratioP2
17345;SDS011;8790;53.590;10.002;2023-04-01T00:00:20;8.13;;;5.20;;
17345;SDS011;8790;53.590;10.002;2023-04-01T00:02:52;6.73;;;5.30;;
17345;SDS011;8790;53.590;10.002;2023-04-01T00:05:24;10.17;;;5.50;;
17345;SDS011;8790;53.590;10.002;2023-04-01T00:07:55;7.57;;;5.57;;
17345;SDS011;8790;53.590;10.002;2023-04-01T00:10:27;8.67;;;5.43;;
17345;SDS011;8790;53.590;10.002;2023-04-01T00:12:59;9.20;;;5.30;;
17345;SDS011;8790;53.590;10.002;2023-04-01T00:15:32;8.10;;;5.37;;
17345;SDS011;8790;53.590;10.002;2023-04-01T00:18:04;8.77;;;5.50;;
17345;SDS011;8790;53.590;10.002;2023-04-01T00:20:36;8.83;;;5.87;;
17345;SDS011;8790;53.590;10.002;2023-04-01T00:23:08;8.13;;;5.07;;
17345;SDS011;8790;53.590;10.002;2023-04-01T00:25:39;7.57;;;4.97;;
17345;SDS011;8790;53.590;10.002;2023-04-01T00:28:11;8.77;;;5.10;;
17345;SDS011;8790;53.590;10.002;2023-04-01T00:30:44;7.90;;;5.23;;
17345;SDS011;8790;53.590;10.002;2023-04-01T00:33:17;7.33;;;5.13;;
17345;SDS011;8790;53.590;10.002;2023-04-01T00:35:48;7.37;;;5.03;;
17345;SDS011;8790;53.590;10.002;2023-04-01T00:38:20;8.73;;;5.00;;
17345;SDS011;8790;53.590;10.002;2023-04-01T00:40:56;7.43;;;5.10;;
17345;SDS011;8790;53.590;10.002;2023-04-01T00:43:30;9.30;;;5.23;;
17345;SDS011;8790;53.590;10.002;2023-04-01T00:46:04;8.50;;;5.30;;
17345;SDS011;8790;53.590;10.002;2023-04-01T00:48:36;7.07;;;4.90;;
17345;SDS011;8790;53.590;10.002;2023-04-01T00:51:11;7.67;;;5.10;;
17345;SDS011;8790;53.590;10.002;2023-04-01T00:53:48;8.63;;;5.50;;
17345;SDS011;8790;53.590;10.002;2023-04-01T00:56:22;7.90;;;5.30;;
17345;SDS011;8790;53.590;10.002;2023-04-01T00:58:58;7.30;;;4.80;;
17345;SDS011;8790;53.590;10.002;2023-04-01T01:01:33;8.87;;;5.70;;
17345;SDS011;8790;53.590;10.002;2023-04-01T01:04:06;8.43;;;5.50;;
17345;SDS011;8790;53.590;10.002;2023-04-01T01:06:39;6.30;;;4.83;;
17345;SDS011;8790;53.590;10.002;2023-04-01T01:09:25;6.80;;;5.30;;
17345;SDS011;8790;53.590;10.002;2023-04-01T01:12:04;9.50;;;5.50;;
17345;SDS011;8790;53.590;10.002;2023-04-01T01:14:45;9.13;;;5.10;;
17345;SDS011;8790;53.590;10.002;2023-04-01T01:17:28;8.63;;;5.37;;
17345;SDS011;8790;53.590;10.002;2023-04-01T01:23:10;10.47;;;5.33;;
17345;SDS011;8790;53.590;10.002;2023-04-01T01:25:57;9.63;;;5.30;;
17345;SDS011;8790;53.590;10.002;2023-04-01T01:28:44;8.63;;;5.03;;
17345;SDS011;8790;53.590;10.002;2023-04-01T01:31:28;7.77;;;5.13;;
17345;SDS011;8790;53.590;10.002;2023-04-01T01:34:11;6.83;;;4.90;;
17345;SDS011;8790;53.590;10.002;2023-04-01T01:36:50;9.10;;;4.87;;
17345;SDS011;8790;53.590;10.002;2023-04-01T01:39:28;9.03;;;5.07;;
17345;SDS011;8790;53.590;10.002;2023-04-01T01:42:04;7.30;;;4.80;;
17345;SDS011;8790;53.590;10.002;2023-04-01T01:44:38;7.60;;;4.80;;
17345;SDS011;8790;53.590;10.002;2023-04-01T01:47:11;6.37;;;5.03;;
17345;SDS011;8790;53.590;10.002;2023-04-01T01:49:45;8.47;;;5.40;;
17345;SDS011;8790;53.590;10.002;2023-04-01T01:52:18;8.13;;;5.13;;
17345;SDS011;8790;53.590;10.002;2023-04-01T01:54:50;5.50;;;4.83;;
17345;SDS011;8790;53.590;10.002;2023-04-01T01:57:28;7.50;;;5.13;;
17345;SDS011;8790;53.590;10.002;2023-04-01T02:00:04;7.37;;;5.30;;
17345;SDS011;8790;53.590;10.002;2023-04-01T02:02:45;9.90;;;5.77;;
17345;SDS011;8790;53.590;10.002;2023-04-01T02:05:19;8.53;;;5.33;;
17345;SDS011;8790;53.590;10.002;2023-04-01T02:07:56;7.20;;;5.33;;
17345;SDS011;8790;53.590;10.002;2023-04-01T02:10:33;5.40;;;4.43;;
17345;SDS011;8790;53.590;10.002;2023-04-01T02:13:09;7.13;;;5.00;;
17345;SDS011;8790;53.590;10.002;2023-04-01T02:15:47;8.47;;;5.10;;
17345;SDS011;8790;53.590;10.002;2023-04-01T02:18:22;8.67;;;5.10;;
17345;SDS011;8790;53.590;10.002;2023-04-01T02:20:54;7.00;;;4.90;;
17345;SDS011;8790;53.590;10.002;2023-04-01T02:23:29;7.23;;;4.43;;
17345;SDS011;8790;53.590;10.002;2023-04-01T02:26:03;7.27;;;4.43;;
17345;SDS011;8790;53.590;10.002;2023-04-01T02:28:38;6.97;;;4.93;;
17345;SDS011;8790;53.590;10.002;2023-04-01T02:31:11;7.57;;;5.00;;
17345;SDS011;8790;53.590;10.002;2023-04-01T02:33:45;8.63;;;4.87;;
17345;SDS011;8790;53.590;10.002;2023-04-01T02:36:18;8.23;;;5.17;;
17345;SDS011;8790;53.590;10.002;2023-04-01T02:38:51;6.43;;;4.90;;
17345;SDS011;8790;53.590;10.002;2023-04-01T02:41:25;8.17;;;4.80;;
17345;SDS011;8790;53.590;10.002;2023-04-01T02:43:57;9.63;;;5.53;;
17345;SDS011;8790;53.590;10.002;2023-04-01T02:46:29;7.33;;;4.93;;
17345;SDS011;8790;53.590;10.002;2023-04-01T02:49:01;7.70;;;5.07;;
17345;SDS011;8790;53.590;10.002;2023-04-01T02:51:33;6.50;;;4.47;;
17345;SDS011;8790;53.590;10.002;2023-04-01T02:54:06;7.33;;;5.00;;
17345;SDS011;8790;53.590;10.002;2023-04-01T02:56:38;9.23;;;5.10;;
17345;SDS011;8790;53.590;10.002;2023-04-01T02:59:10;7.37;;;5.13;;
17345;SDS011;8790;53.590;10.002;2023-04-01T03:01:42;5.33;;;4.63;;
17345;SDS011;8790;53.590;10.002;2023-04-01T03:04:13;6.80;;;5.30;;
17345;SDS011;8790;53.590;10.002;2023-04-01T03:06:45;7.03;;;5.60;;
17345;SDS011;8790;53.590;10.002;2023-04-01T03:09:18;7.67;;;5.30;;
17345;SDS011;8790;53.590;10.002;2023-04-01T03:11:50;8.30;;;5.73;;
17345;SDS011;8790;53.590;10.002;2023-04-01T03:14:21;7.43;;;5.50;;
17345;SDS011;8790;53.590;10.002;2023-04-01T03:16:53;8.27;;;5.00;;
17345;SDS011;8790;53.590;10.002;2023-04-01T03:19:25;8.17;;;5.40;;
17345;SDS011;8790;53.590;10.002;2023-04-01T03:21:57;6.57;;;5.37;;
17345;SDS011;8790;53.590;10.002;2023-04-01T03:24:30;9.03;;;5.37;;
17345;SDS011;8790;53.590;10.002;2023-04-01T03:27:02;9.57;;;6.10;;
17345;SDS011;8790;53.590;10.002;2023-04-01T03:29:34;9.47;;;5.97;;
17345;SDS011;8790;53.590;10.002;2023-04-01T03:32:06;8.90;;;5.63;;
17345;SDS011;8790;53.590;10.002;2023-04-01T03:34:37;10.27;;;5.80;;
17345;SDS011;8790;53.590;10.002;2023-04-01T03:37:10;8.30;;;5.80;;
17345;SDS011;8790;53.590;10.002;2023-04-01T03:39:43;9.27;;;6.20;;
17345;SDS011;8790;53.590;10.002;2023-04-01T03:42:15;10.40;;;6.27;;
17345;SDS011;8790;53.590;10.002;2023-04-01T03:44:47;11.77;;;6.10;;
17345;SDS011;8790;53.590;10.002;2023-04-01T03:47:19;8.23;;;6.00;;
17345;SDS011;8790;53.590;10.002;2023-04-01T03:49:51;10.43;;;6.17;;
17345;SDS011;8790;53.590;10.002;2023-04-01T03:52:23;8.83;;;6.40;;
17345;SDS011;8790;53.590;10.002;2023-04-01T03:54:56;9.40;;;6.00;;
17345;SDS011;8790;53.590;10.002;2023-04-01T03:57:30;8.90;;;6.30;;
17345;SDS011;8790;53.590;10.002;2023-04-01T04:00:07;8.40;;;6.20;;
17345;SDS011;8790;53.590;10.002;2023-04-01T04:02:44;7.23;;;5.53;;
17345;SDS011;8790;53.590;10.002;2023-04-01T04:05:19;7.50;;;6.33;;
17345;SDS011;8790;53.590;10.002;2023-04-01T04:07:51;8.50;;;5.83;;
17345;SDS011;8790;53.590;10.002;2023-04-01T04:10:25;10.80;;;6.23;;
17345;SDS011;8790;53.590;10.002;2023-04-01T04:12:56;7.47;;;6.00;;
17345;SDS011;8790;53.590;10.002;2023-04-01T04:15:30;8.77;;;6.53;;
17345;SDS011;8790;53.590;10.002;2023-04-01T04:18:02;8.77;;;6.30;;
17345;SDS011;8790;53.590;10.002;2023-04-01T04:20:34;7.67;;;6.23;;
17345;SDS011;8790;53.590;10.002;2023-04-01T04:23:06;9.30;;;6.20;;
17345;SDS011;8790;53.590;10.002;2023-04-01T04:25:40;7.27;;;5.60;;
17345;SDS011;8790;53.590;10.002;2023-04-01T04:28:12;8.47;;;6.37;;
17345;SDS011;8790;53.590;10.002;2023-04-01T04:30:43;7.60;;;6.07;;
17345;SDS011;8790;53.590;10.002;2023-04-01T04:33:15;7.30;;;5.97;;
17345;SDS011;8790;53.590;10.002;2023-04-01T04:35:48;9.50;;;6.83;;
17345;SDS011;8790;53.590;10.002;2023-04-01T04:38:19;10.30;;;6.67;;
17345;SDS011;8790;53.590;10.002;2023-04-01T04:40:52;9.17;;;6.53;;
17345;SDS011;8790;53.590;10.002;2023-04-01T04:43:24;9.60;;;6.97;;
17345;SDS011;8790;53.590;10.002;2023-04-01T04:45:56;8.10;;;6.80;;
17345;SDS011;8790;53.590;10.002;2023-04-01T04:48:28;8.87;;;6.80;;
17345;SDS011;8790;53.590;10.002;2023-04-01T04:50:59;8.73;;;6.97;;
17345;SDS011;8790;53.590;10.002;2023-04-01T04:53:31;8.40;;;7.13;;
17345;SDS011;8790;53.590;10.002;2023-04-01T04:56:05;8.10;;;7.10;;
17345;SDS011;8790;53.590;10.002;2023-04-01T04:58:43;9.43;;;7.30;;
17345;SDS011;8790;53.590;10.002;2023-04-01T05:01:20;9.87;;;7.10;;
17345;SDS011;8790;53.590;10.002;2023-04-01T05:03:52;7.10;;;6.40;;
17345;SDS011;8790;53.590;10.002;2023-04-01T05:06:23;9.00;;;6.90;;
17345;SDS011;8790;53.590;10.002;2023-04-01T05:08:59;9.20;;;7.40;;
17345;SDS011;8790;53.590;10.002;2023-04-01T05:11:32;8.10;;;6.93;;
17345;SDS011;8790;53.590;10.002;2023-04-01T05:14:04;7.97;;;6.67;;
17345;SDS011;8790;53.590;10.002;2023-04-01T05:16:36;9.50;;;6.53;;
17345;SDS011;8790;53.590;10.002;2023-04-01T05:19:08;8.07;;;6.37;;
17345;SDS011;8790;53.590;10.002;2023-04-01T05:21:39;7.53;;;6.50;;
17345;SDS011;8790;53.590;10.002;2023-04-01T05:24:11;8.40;;;6.27;;
17345;SDS011;8790;53.590;10.002;2023-04-01T05:26:45;3.80;;;3.40;;
17345;SDS011;8790;53.590;10.002;2023-04-01T05:29:17;2.77;;;1.43;;
17345;SDS011;8790;53.590;10.002;2023-04-01T05:31:59;1.50;;;1.13;;
17345;SDS011;8790;53.590;10.002;2023-04-01T05:34:32;0.70;;;0.70;;
17345;SDS011;8790;53.590;10.002;2023-04-01T05:37:04;1.57;;;0.77;;
17345;SDS011;8790;53.590;10.002;2023-04-01T05:39:37;1.10;;;0.80;;
17345;SDS011;8790;53.590;10.002;2023-04-01T05:42:11;2.03;;;1.13;;
17345;SDS011;8790;53.590;10.002;2023-04-01T05:44:44;3.13;;;0.90;;
17345;SDS011;8790;53.590;10.002;2023-04-01T05:47:35;1.20;;;0.80;;
17345;SDS011;8790;53.590;10.002;2023-04-01T05:50:07;1.00;;;0.80;;
17345;SDS011;8790;53.590;10.002;2023-04-01T05:52:40;1.37;;;1.00;;
17345;SDS011;8790;53.590;10.002;2023-04-01T05:55:12;1.03;;;0.90;;
17345;SDS011;8790;53.590;10.002;2023-04-01T05:57:46;0.80;;;0.80;;
17345;SDS011;8790;53.590;10.002;2023-04-01T06:00:18;1.20;;;0.97;;
17345;SDS011;8790;53.590;10.002;2023-04-01T06:02:51;1.00;;;0.90;;
17345;SDS011;8790;53.590;10.002;2023-04-01T06:05:24;1.63;;;0.90;;
17345;SDS011;8790;53.590;10.002;2023-04-01T06:07:59;1.53;;;0.80;;
17345;SDS011;8790;53.590;10.002;2023-04-01T06:10:37;0.73;;;0.73;;
17345;SDS011;8790;53.590;10.002;2023-04-01T06:13:23;1.37;;;1.20;;
17345;SDS011;8790;53.590;10.002;2023-04-01T06:16:05;1.10;;;1.00;;
17345;SDS011;8790;53.590;10.002;2023-04-01T06:18:48;1.17;;;1.00;;
17345;SDS011;8790;53.590;10.002;2023-04-01T06:21:47;1.10;;;1.00;;
17345;SDS011;8790;53.590;10.002;2023-04-01T06:24:52;1.17;;;1.00;;
17345;SDS011;8790;53.590;10.002;2023-04-01T06:27:41;1.43;;;1.33;;
17345;SDS011;8790;53.590;10.002;2023-04-01T06:30:34;1.50;;;1.40;;
17345;SDS011;8790;53.590;10.002;2023-04-01T06:33:17;1.10;;;1.00;;
17345;SDS011;8790;53.590;10.002;2023-04-01T06:39:15;2.40;;;1.20;;
17345;SDS011;8790;53.590;10.002;2023-04-01T06:42:04;1.00;;;0.87;;
17345;SDS011;8790;53.590;10.002;2023-04-01T06:44:55;1.13;;;0.90;;
17345;SDS011;8790;53.590;10.002;2023-04-01T06:48:00;0.80;;;0.80;;
17345;SDS011;8790;53.590;10.002;2023-04-01T06:51:10;0.97;;;0.80;;
17345;SDS011;8790;53.590;10.002;2023-04-01T06:54:09;1.30;;;0.90;;
17345;SDS011;8790;53.590;10.002;2023-04-01T06:57:03;1.03;;;0.90;;
17345;SDS011;8790;53.590;10.002;2023-04-01T06:59:44;1.67;;;1.00;;
17345;SDS011;8790;53.590;10.002;2023-04-01T07:02:20;0.80;;;0.80;;
17345;SDS011;8790;53.590;10.002;2023-04-01T07:04:58;0.70;;;0.70;;
17345;SDS011;8790;53.590;10.002;2023-04-01T07:07:33;1.33;;;1.17;;
17345;SDS011;8790;53.590;10.002;2023-04-01T07:10:14;1.23;;;0.80;;
17345;SDS011;8790;53.590;10.002;2023-04-01T07:13:11;1.33;;;0.70;;
17345;SDS011;8790;53.590;10.002;2023-04-01T07:15:58;1.43;;;0.73;;
17345;SDS011;8790;53.590;10.002;2023-04-01T07:18:41;0.80;;;0.80;;
17345;SDS011;8790;53.590;10.002;2023-04-01T07:21:21;0.80;;;0.80;;
17345;SDS011;8790;53.590;10.002;2023-04-01T07:23:59;0.97;;;0.87;;
17345;SDS011;8790;53.590;10.002;2023-04-01T07:26:39;0.97;;;0.60;;
17345;SDS011;8790;53.590;10.002;2023-04-01T07:29:14;1.27;;;0.87;;
17345;SDS011;8790;53.590;10.002;2023-04-01T07:32:05;1.67;;;1.30;;
17345;SDS011;8790;53.590;10.002;2023-04-01T07:34:46;0.77;;;0.50;;
17345;SDS011;8790;53.590;10.002;2023-04-01T07:37:30;0.83;;;0.73;;
17345;SDS011;8790;53.590;10.002;2023-04-01T07:40:10;0.90;;;0.80;;
17345;SDS011;8790;53.590;10.002;2023-04-01T07:43:05;0.80;;;0.80;;
17345;SDS011;8790;53.590;10.002;2023-04-01T07:45:54;1.03;;;0.70;;
17345;SDS011;8790;53.590;10.002;2023-04-01T07:48:36;1.27;;;0.70;;
17345;SDS011;8790;53.590;10.002;2023-04-01T07:51:14;1.00;;;0.80;;
17345;SDS011;8790;53.590;10.002;2023-04-01T07:53:53;1.57;;;0.90;;
17345;SDS011;8790;53.590;10.002;2023-04-01T07:56:34;1.10;;;1.00;;
17345;SDS011;8790;53.590;10.002;2023-04-01T07:59:15;0.80;;;0.70;;
17345;SDS011;8790;53.590;10.002;2023-04-01T08:02:05;0.77;;;0.77;;
17345;SDS011;8790;53.590;10.002;2023-04-01T08:04:53;1.37;;;0.93;;
17345;SDS011;8790;53.590;10.002;2023-04-01T08:07:35;1.53;;;0.87;;
17345;SDS011;8790;53.590;10.002;2023-04-01T08:10:38;0.97;;;0.80;;
17345;SDS011;8790;53.590;10.002;2023-04-01T08:13:42;1.10;;;0.60;;
17345;SDS011;8790;53.590;10.002;2023-04-01T08:16:57;1.20;;;0.60;;
17345;SDS011;8790;53.590;10.002;2023-04-01T08:19:46;1.33;;;0.77;;
17345;SDS011;8790;53.590;10.002;2023-04-01T08:22:30;1.13;;;0.90;;
17345;SDS011;8790;53.590;10.002;2023-04-01T08:25:11;1.27;;;0.80;;
17345;SDS011;8790;53.590;10.002;2023-04-01T08:27:51;0.77;;;0.60;;
17345;SDS011;8790;53.590;10.002;2023-04-01T08:30:26;0.70;;;0.60;;
17345;SDS011;8790;53.590;10.002;2023-04-01T08:33:05;0.70;;;0.67;;
17345;SDS011;8790;53.590;10.002;2023-04-01T08:35:42;0.80;;;0.60;;
17345;SDS011;8790;53.590;10.002;2023-04-01T08:38:23;1.30;;;1.20;;
17345;SDS011;8790;53.590;10.002;2023-04-01T08:40:58;0.82;;;0.70;;
17345;SDS011;8790;53.590;10.002;2023-04-01T08:44:26;1.00;;;0.70;;
17345;SDS011;8790;53.590;10.002;2023-04-01T08:47:17;1.37;;;0.60;;
17345;SDS011;8790;53.590;10.002;2023-04-01T08:50:04;0.70;;;0.70;;
17345;SDS011;8790;53.590;10.002;2023-04-01T08:53:13;0.67;;;0.60;;
17345;SDS011;8790;53.590;10.002;2023-04-01T08:55:56;2.33;;;1.70;;
17345;SDS011;8790;53.590;10.002;2023-04-01T08:58:49;1.47;;;0.70;;
17345;SDS011;8790;53.590;10.002;2023-04-01T09:01:40;1.10;;;0.70;;
17345;SDS011;8790;53.590;10.002;2023-04-01T09:04:55;0.60;;;0.60;;
17345;SDS011;8790;53.590;10.002;2023-04-01T09:07:52;1.03;;;0.93;;
17345;SDS011;8790;53.590;10.002;2023-04-01T09:14:04;0.70;;;0.60;;
17345;SDS011;8790;53.590;10.002;2023-04-01T09:20:16;1.30;;;1.20;;
17345;SDS011;8790;53.590;10.002;2023-04-01T09:23:02;1.27;;;0.80;;
17345;SDS011;8790;53.590;10.002;2023-04-01T09:25:48;1.30;;;0.83;;
17345;SDS011;8790;53.590;10.002;2023-04-01T09:28:33;0.70;;;0.70;;
17345;SDS011;8790;53.590;10.002;2023-04-01T09:31:18;1.07;;;0.70;;
17345;SDS011;8790;53.590;10.002;2023-04-01T09:34:38;0.60;;;0.60;;
17345;SDS011;8790;53.590;10.002;2023-04-01T09:37:31;1.13;;;1.03;;
17345;SDS011;8790;53.590;10.002;2023-04-01T09:40:16;0.70;;;0.70;;
17345;SDS011;8790;53.590;10.002;2023-04-01T09:43:00;0.60;;;0.60;;
17345;SDS011;8790;53.590;10.002;2023-04-01T09:46:16;0.73;;;0.70;;
17345;SDS011;8790;53.590;10.002;2023-04-01T09:49:04;1.70;;;1.40;;
17345;SDS011;8790;53.590;10.002;2023-04-01T09:51:53;1.10;;;0.87;;
17345;SDS011;8790;53.590;10.002;2023-04-01T09:54:39;3.70;;;2.30;;
17345;SDS011;8790;53.590;10.002;2023-04-01T09:57:32;1.13;;;1.03;;
17345;SDS011;8790;53.590;10.002;2023-04-01T10:00:39;0.80;;;0.77;;
17345;SDS011;8790;53.590;10.002;2023-04-01T10:10:03;1.63;;;0.80;;
17345;SDS011;8790;53.590;10.002;2023-04-01T10:16:19;1.70;;;0.60;;
17345;SDS011;8790;53.590;10.002;2023-04-01T10:19:07;0.80;;;0.80;;
17345;SDS011;8790;53.590;10.002;2023-04-01T10:24:58;0.97;;;0.60;;
17345;SDS011;8790;53.590;10.002;2023-04-01T10:28:07;0.70;;;0.60;;
17345;SDS011;8790;53.590;10.002;2023-04-01T10:31:33;0.80;;;0.80;;
17345;SDS011;8790;53.590;10.002;2023-04-01T10:37:38;0.60;;;0.50;;
17345;SDS011;8790;53.590;10.002;2023-04-01T10:40:36;0.63;;;0.60;;
17345;SDS011;8790;53.590;10.002;2023-04-01T10:43:57;0.50;;;0.50;;
17345;SDS011;8790;53.590;10.002;2023-04-01T10:47:01;0.70;;;0.53;;
17345;SDS011;8790;53.590;10.002;2023-04-01T10:53:19;0.50;;;0.40;;
17345;SDS011;8790;53.590;10.002;2023-04-01T11:00:02;0.90;;;0.50;;
17345;SDS011;8790;53.590;10.002;2023-04-01T11:13:04;1.00;;;0.70;;
17345;SDS011;8790;53.590;10.002;2023-04-01T11:19:02;0.73;;;0.73;;
17345;SDS011;8790;53.590;10.002;2023-04-01T11:22:01;0.87;;;0.73;;
17345;SDS011;8790;53.590;10.002;2023-04-01T11:25:09;1.50;;;1.03;;
17345;SDS011;8790;53.590;10.002;2023-04-01T11:28:23;5.00;;;2.80;;
17345;SDS011;8790;53.590;10.002;2023-04-01T11:31:19;1.70;;;1.00;;
17345;SDS011;8790;53.590;10.002;2023-04-01T11:34:02;1.40;;;1.10;;
17345;SDS011;8790;53.590;10.002;2023-04-01T11:36:45;1.30;;;1.20;;
17345;SDS011;8790;53.590;10.002;2023-04-01T11:39:29;1.23;;;1.03;;
17345;SDS011;8790;53.590;10.002;2023-04-01T12:19:03;2.87;;;2.47;;
17345;SDS011;8790;53.590;10.002;2023-04-01T12:21:45;6.37;;;2.83;;
17345;SDS011;8790;53.590;10.002;2023-04-01T12:24:35;3.67;;;2.60;;
17345;SDS011;8790;53.590;10.002;2023-04-01T12:27:27;3.60;;;2.80;;
17345;SDS011;8790;53.590;10.002;2023-04-01T12:33:07;4.43;;;2.87;;
17345;SDS011;8790;53.590;10.002;2023-04-01T12:35:55;3.33;;;2.90;;
17345;SDS011;8790;53.590;10.002;2023-04-01T12:38:40;4.47;;;3.30;;
17345;SDS011;8790;53.590;10.002;2023-04-01T12:41:22;4.60;;;2.77;;
17345;SDS011;8790;53.590;10.002;2023-04-01T12:44:10;3.20;;;2.80;;
17345;SDS011;8790;53.590;10.002;2023-04-01T12:46:58;4.13;;;2.90;;
17345;SDS011;8790;53.590;10.002;2023-04-01T12:49:51;3.63;;;2.90;;
17345;SDS011;8790;53.590;10.002;2023-04-01T12:52:37;3.30;;;3.00;;
17345;SDS011;8790;53.590;10.002;2023-04-01T12:58:31;3.60;;;2.80;;
17345;SDS011;8790;53.590;10.002;2023-04-01T13:01:25;8.50;;;5.57;;
17345;SDS011;8790;53.590;10.002;2023-04-01T13:04:06;4.33;;;3.17;;
17345;SDS011;8790;53.590;10.002;2023-04-01T13:07:08;4.37;;;3.10;;
17345;SDS011;8790;53.590;10.002;2023-04-01T13:10:04;3.40;;;2.40;;
17345;SDS011;8790;53.590;10.002;2023-04-01T13:15:51;3.77;;;2.53;;
17345;SDS011;8790;53.590;10.002;2023-04-01T13:18:28;3.30;;;2.53;;
17345;SDS011;8790;53.590;10.002;2023-04-01T13:21:11;3.07;;;2.53;;
17345;SDS011;8790;53.590;10.002;2023-04-01T13:23:50;3.23;;;2.60;;
17345;SDS011;8790;53.590;10.002;2023-04-01T13:26:34;2.63;;;2.40;;
17345;SDS011;8790;53.590;10.002;2023-04-01T13:29:11;3.47;;;2.10;;
17345;SDS011;8790;53.590;10.002;2023-04-01T13:31:52;2.80;;;2.03;;
17345;SDS011;8790;53.590;10.002;2023-04-01T13:34:39;3.50;;;2.13;;
17345;SDS011;8790;53.590;10.002;2023-04-01T13:37:23;2.57;;;2.00;;
17345;SDS011;8790;53.590;10.002;2023-04-01T13:40:11;3.97;;;2.27;;
17345;SDS011;8790;53.590;10.002;2023-04-01T13:42:59;3.83;;;2.50;;
17345;SDS011;8790;53.590;10.002;2023-04-01T13:45:38;2.77;;;2.20;;
17345;SDS011;8790;53.590;10.002;2023-04-01T13:48:29;4.03;;;2.40;;
17345;SDS011;8790;53.590;10.002;2023-04-01T13:54:50;3.80;;;2.70;;
17345;SDS011;8790;53.590;10.002;2023-04-01T13:57:43;3.10;;;2.73;;
17345;SDS011;8790;53.590;10.002;2023-04-01T14:00:33;4.60;;;2.93;;
17345;SDS011;8790;53.590;10.002;2023-04-01T14:03:17;6.10;;;3.23;;
17345;SDS011;8790;53.590;10.002;2023-04-01T14:06:13;3.10;;;2.80;;
17345;SDS011;8790;53.590;10.002;2023-04-01T14:12:04;4.43;;;2.93;;
17345;SDS011;8790;53.590;10.002;2023-04-01T14:14:44;6.20;;;3.00;;
17345;SDS011;8790;53.590;10.002;2023-04-01T14:17:30;5.50;;;3.13;;
17345;SDS011;8790;53.590;10.002;2023-04-01T14:20:21;4.90;;;2.90;;
17345;SDS011;8790;53.590;10.002;2023-04-01T14:23:03;3.10;;;2.80;;
17345;SDS011;8790;53.590;10.002;2023-04-01T14:26:00;7.10;;;4.73;;
17345;SDS011;8790;53.590;10.002;2023-04-01T14:29:01;6.20;;;3.73;;
17345;SDS011;8790;53.590;10.002;2023-04-01T14:31:45;5.23;;;3.63;;
17345;SDS011;8790;53.590;10.002;2023-04-01T14:34:31;5.83;;;3.70;;
17345;SDS011;8790;53.590;10.002;2023-04-01T14:37:20;5.60;;;3.83;;
17345;SDS011;8790;53.590;10.002;2023-04-01T14:43:04;5.93;;;3.30;;
17345;SDS011;8790;53.590;10.002;2023-04-01T14:45:52;4.13;;;3.07;;
17345;SDS011;8790;53.590;10.002;2023-04-01T14:48:34;5.30;;;3.10;;
17345;SDS011;8790;53.590;10.002;2023-04-01T14:51:13;4.43;;;3.00;;
17345;SDS011;8790;53.590;10.002;2023-04-01T14:53:51;5.00;;;3.00;;
17345;SDS011;8790;53.590;10.002;2023-04-01T14:56:39;4.87;;;3.57;;
17345;SDS011;8790;53.590;10.002;2023-04-01T14:59:14;6.53;;;4.23;;
17345;SDS011;8790;53.590;10.002;2023-04-01T15:01:58;5.83;;;4.30;;
17345;SDS011;8790;53.590;10.002;2023-04-01T15:04:37;6.20;;;4.43;;
17345;SDS011;8790;53.590;10.002;2023-04-01T15:07:21;6.63;;;4.10;;
17345;SDS011;8790;53.590;10.002;2023-04-01T15:10:17;7.40;;;4.00;;
17345;SDS011;8790;53.590;10.002;2023-04-01T15:13:05;5.43;;;3.80;;
17345;SDS011;8790;53.590;10.002;2023-04-01T15:15:51;4.50;;;3.70;;
17345;SDS011;8790;53.590;10.002;2023-04-01T15:18:37;6.40;;;4.40;;
17345;SDS011;8790;53.590;10.002;2023-04-01T15:21:18;7.40;;;4.43;;
17345;SDS011;8790;53.590;10.002;2023-04-01T15:23:59;7.47;;;4.57;;
17345;SDS011;8790;53.590;10.002;2023-04-01T15:26:42;7.10;;;4.77;;
17345;SDS011;8790;53.590;10.002;2023-04-01T15:29:28;6.07;;;4.23;;
17345;SDS011;8790;53.590;10.002;2023-04-01T15:32:19;8.50;;;4.47;;
17345;SDS011;8790;53.590;10.002;2023-04-01T15:34:57;7.33;;;4.50;;
17345;SDS011;8790;53.590;10.002;2023-04-01T15:37:42;6.33;;;4.87;;
17345;SDS011;8790;53.590;10.002;2023-04-01T15:40:22;8.23;;;5.20;;
17345;SDS011;8790;53.590;10.002;2023-04-01T15:43:03;7.83;;;4.90;;
17345;SDS011;8790;53.590;10.002;2023-04-01T15:45:49;8.37;;;5.27;;
17345;SDS011;8790;53.590;10.002;2023-04-01T15:48:31;7.00;;;5.50;;
17345;SDS011;8790;53.590;10.002;2023-04-01T15:51:16;7.33;;;4.40;;
17345;SDS011;8790;53.590;10.002;2023-04-01T15:53:56;6.67;;;4.60;;
17345;SDS011;8790;53.590;10.002;2023-04-01T15:56:49;8.50;;;4.90;;
17345;SDS011;8790;53.590;10.002;2023-04-01T15:59:38;8.60;;;5.77;;
17345;SDS011;8790;53.590;10.002;2023-04-01T16:02:28;6.23;;;5.07;;
17345;SDS011;8790;53.590;10.002;2023-04-01T16:05:04;8.90;;;5.00;;
17345;SDS011;8790;53.590;10.002;2023-04-01T16:07:43;9.80;;;5.20;;
17345;SDS011;8790;53.590;10.002;2023-04-01T16:10:30;9.73;;;5.30;;
17345;SDS011;8790;53.590;10.002;2023-04-01T16:13:24;8.30;;;5.23;;
17345;SDS011;8790;53.590;10.002;2023-04-01T16:16:10;7.40;;;5.10;;
17345;SDS011;8790;53.590;10.002;2023-04-01T16:21:51;6.70;;;4.57;;
17345;SDS011;8790;53.590;10.002;2023-04-01T16:24:31;7.40;;;4.47;;
17345;SDS011;8790;53.590;10.002;2023-04-01T16:27:08;5.90;;;4.27;;
17345;SDS011;8790;53.590;10.002;2023-04-01T16:29:47;9.10;;;5.20;;
17345;SDS011;8790;53.590;10.002;2023-04-01T16:32:22;9.67;;;4.87;;
17345;SDS011;8790;53.590;10.002;2023-04-01T16:35:13;9.47;;;5.30;;
17345;SDS011;8790;53.590;10.002;2023-04-01T16:38:03;5.93;;;4.33;;
17345;SDS011;8790;53.590;10.002;2023-04-01T16:40:44;9.50;;;4.90;;
17345;SDS011;8790;53.590;10.002;2023-04-01T16:43:25;7.50;;;4.60;;
17345;SDS011;8790;53.590;10.002;2023-04-01T16:46:13;7.37;;;4.70;;
17345;SDS011;8790;53.590;10.002;2023-04-01T16:52:14;7.87;;;4.67;;
17345;SDS011;8790;53.590;10.002;2023-04-01T16:54:47;8.93;;;4.87;;
17345;SDS011;8790;53.590;10.002;2023-04-01T16:57:28;8.73;;;5.10;;
17345;SDS011;8790;53.590;10.002;2023-04-01T17:00:14;8.20;;;5.00;;
17345;SDS011;8790;53.590;10.002;2023-04-01T17:02:51;6.30;;;4.90;;
17345;SDS011;8790;53.590;10.002;2023-04-01T17:05:38;9.80;;;4.73;;
17345;SDS011;8790;53.590;10.002;2023-04-01T17:08:17;9.47;;;4.83;;
17345;SDS011;8790;53.590;10.002;2023-04-01T17:10:59;7.30;;;4.80;;
17345;SDS011;8790;53.590;10.002;2023-04-01T17:13:41;5.97;;;4.27;;
17345;SDS011;8790;53.590;10.002;2023-04-01T17:16:27;8.10;;;4.30;;
17345;SDS011;8790;53.590;10.002;2023-04-01T17:19:30;6.43;;;4.80;;
17345;SDS011;8790;53.590;10.002;2023-04-01T17:22:16;5.23;;;3.70;;
17345;SDS011;8790;53.590;10.002;2023-04-01T17:25:01;5.27;;;3.40;;
17345;SDS011;8790;53.590;10.002;2023-04-01T17:27:42;4.47;;;3.50;;
17345;SDS011;8790;53.590;10.002;2023-04-01T17:30:30;5.67;;;3.47;;
17345;SDS011;8790;53.590;10.002;2023-04-01T17:33:15;6.27;;;3.63;;
17345;SDS011;8790;53.590;10.002;2023-04-01T17:35:58;5.40;;;3.83;;
17345;SDS011;8790;53.590;10.002;2023-04-01T17:41:36;4.13;;;3.67;;
17345;SDS011;8790;53.590;10.002;2023-04-01T17:44:16;6.63;;;3.67;;
17345;SDS011;8790;53.590;10.002;2023-04-01T17:47:01;5.43;;;3.73;;
17345;SDS011;8790;53.590;10.002;2023-04-01T17:49:45;5.67;;;3.63;;
17345;SDS011;8790;53.590;10.002;2023-04-01T17:52:28;5.77;;;3.30;;
17345;SDS011;8790;53.590;10.002;2023-04-01T17:55:15;4.40;;;3.33;;
17345;SDS011;8790;53.590;10.002;2023-04-01T17:58:12;4.97;;;3.67;;
17345;SDS011;8790;53.590;10.002;2023-04-01T18:01:03;6.67;;;3.30;;
17345;SDS011;8790;53.590;10.002;2023-04-01T18:06:50;5.80;;;2.90;;
17345;SDS011;8790;53.590;10.002;2023-04-01T18:09:40;6.43;;;3.27;;
17345;SDS011;8790;53.590;10.002;2023-04-01T18:12:25;4.27;;;2.83;;
17345;SDS011;8790;53.590;10.002;2023-04-01T18:15:15;4.33;;;2.93;;